createdAt,value
2019-04-21T00:05:20.000Z,8.80
2019-04-21T00:12:12.414Z,8.70
2019-04-21T00:18:51.902Z,8.60
2019-04-21T00:25:42.688Z,8.50
2019-04-21T00:32:29.226Z,8.30
2019-04-21T00:39:36.397Z,8.20
2019-04-21T00:46:03.486Z,8.10
2019-04-21T00:53:08.301Z,7.90
2019-04-21T00:59:54.363Z,7.70
2019-04-21T01:06:43.125Z,7.60
2019-04-21T01:13:27.846Z,7.50
2019-04-21T01:20:01.415Z,7.40
2019-04-21T01:26:47.030Z,7.40
2019-04-21T01:33:48.634Z,7.30
2019-04-21T01:40:33.773Z,7.40
2019-04-21T01:47:13.080Z,7.30
2019-04-21T01:54:09.386Z,7.40
2019-04-21T02:00:51.795Z,7.10
2019-04-21T02:08:27.477Z,7.00
2019-04-21T02:15:37.962Z,6.90
2019-04-21T02:22:00.891Z,6.80
2019-04-21T02:28:57.422Z,6.80
2019-04-21T02:42:38.085Z,6.60
2019-04-21T02:49:50.769Z,6.50
2019-04-21T02:56:11.134Z,6.50
2019-04-21T03:03:03.899Z,6.30
2019-04-21T03:16:32.985Z,6.10
2019-04-21T03:23:27.818Z,6.00
2019-04-21T03:30:26.279Z,5.90
2019-04-21T03:57:32.431Z,5.60
2019-04-21T04:04:31.921Z,5.50
2019-04-21T04:11:12.050Z,5.50
2019-04-21T04:17:46.803Z,5.50
2019-04-21T04:38:24.214Z,5.30
2019-04-21T04:45:14.959Z,5.40
2019-04-21T04:52:14.206Z,5.50
2019-04-21T04:58:59.575Z,5.60
2019-04-21T05:05:30.164Z,5.80
2019-04-21T05:12:12.026Z,6.00
2019-04-21T05:19:06.528Z,6.20
2019-04-21T05:25:30.759Z,6.30
2019-04-21T05:32:26.830Z,6.50
2019-04-21T05:46:14.280Z,9.20
2019-04-21T05:52:50.385Z,11.60
2019-04-21T05:59:43.565Z,12.40
2019-04-21T06:06:34.089Z,14.50
2019-04-21T06:13:20.667Z,23.70
2019-04-21T06:20:05.639Z,28.10
2019-04-21T06:27:00.362Z,32.20
2019-04-21T06:33:43.173Z,34.10
2019-04-21T06:40:27.753Z,35.30
2019-04-21T06:47:17.647Z,36.30
2019-04-21T07:00:41.117Z,37.50
2019-04-21T07:21:08.256Z,39.30
2019-04-21T07:27:52.055Z,41.30
2019-04-21T07:34:41.361Z,42.20
2019-04-21T07:41:18.424Z,42.30
2019-04-21T07:48:12.695Z,41.20
2019-04-21T07:55:15.353Z,41.40
2019-04-21T08:01:53.237Z,42.80
2019-04-21T08:08:33.762Z,42.70
2019-04-21T08:22:11.499Z,42.00
2019-04-21T08:42:25.393Z,39.20
2019-04-21T08:49:13.410Z,41.90
2019-04-21T08:56:10.573Z,41.40
2019-04-21T09:03:02.656Z,42.40
2019-04-21T09:09:57.860Z,40.10
2019-04-21T09:16:24.966Z,41.70
2019-04-21T09:23:19.508Z,38.40
2019-04-21T09:29:53.995Z,37.80
2019-04-21T09:36:41.278Z,35.40
2019-04-21T09:43:30.806Z,34.30
2019-04-21T09:50:09.593Z,36.80
2019-04-21T09:56:59.978Z,37.50
2019-04-21T10:03:47.381Z,37.50
2019-04-21T10:10:29.628Z,38.60
2019-04-21T10:17:22.075Z,37.60
2019-04-21T10:24:08.153Z,36.00
2019-04-21T10:30:53.434Z,34.80
2019-04-21T10:37:50.861Z,33.70
2019-04-21T10:44:25.327Z,33.20
2019-04-21T10:51:10.747Z,33.80
2019-04-21T10:58:12.219Z,29.20
2019-04-21T11:04:58.500Z,27.00
2019-04-21T11:11:46.860Z,26.20
2019-04-21T11:18:31.779Z,25.30
2019-04-21T11:25:17.867Z,24.60
2019-04-21T11:32:05.279Z,24.50
2019-04-21T11:39:06.092Z,24.60
2019-04-21T11:45:42.114Z,24.40
2019-04-21T11:52:27.365Z,24.20
2019-04-21T11:59:12.597Z,24.40
2019-04-21T12:05:57.823Z,24.30
2019-04-21T12:12:43.354Z,23.90
2019-04-21T12:19:28.512Z,23.90
2019-04-21T12:26:15.944Z,24.00
2019-04-21T12:33:04.304Z,24.30
2019-04-21T12:39:50.576Z,24.60
2019-04-21T12:46:38.089Z,24.60
2019-04-21T12:53:23.546Z,24.50
2019-04-21T13:00:11.108Z,24.60
2019-04-21T13:06:57.324Z,24.60
2019-04-21T13:13:45.960Z,24.60
2019-04-21T13:20:31.356Z,24.70
2019-04-21T13:27:17.733Z,25.00
2019-04-21T13:34:04.179Z,25.10
2019-04-21T13:41:17.522Z,25.10
2019-04-21T13:47:50.410Z,25.30
2019-04-21T13:54:35.807Z,25.20
2019-04-21T14:01:23.406Z,25.10
2019-04-21T14:08:09.277Z,25.00
2019-04-21T14:14:54.450Z,24.70
2019-04-21T14:21:39.411Z,24.90
2019-04-21T14:28:24.285Z,25.20
2019-04-21T14:35:10.931Z,25.20
2019-04-21T14:41:56.513Z,25.40
2019-04-21T14:48:59.687Z,25.40
2019-04-21T14:55:45.914Z,25.30
2019-04-21T15:02:31.886Z,25.20
2019-04-21T15:09:16.923Z,25.30
2019-04-21T15:16:02.738Z,25.40
2019-04-21T15:22:48.292Z,25.60
2019-04-21T15:29:33.278Z,25.40
2019-04-21T15:36:18.715Z,25.30
2019-04-21T15:43:04.386Z,25.20
2019-04-21T15:50:02.929Z,25.30
2019-04-21T15:56:44.858Z,25.20
2019-04-21T16:03:31.487Z,25.10
2019-04-21T16:10:29.928Z,25.10
2019-04-21T16:17:03.417Z,25.00
2019-04-21T16:23:48.648Z,24.90
2019-04-21T16:30:34.122Z,24.90
2019-04-21T16:37:19.458Z,24.70
2019-04-21T16:44:05.102Z,24.50
2019-04-21T16:50:50.074Z,24.30
2019-04-21T16:57:39.820Z,24.10
2019-04-21T17:04:26.377Z,24.10
2019-04-21T17:11:18.788Z,23.90
2019-04-21T17:18:16.515Z,23.70
2019-04-21T17:24:44.711Z,23.40
2019-04-21T17:31:30.680Z,23.20
2019-04-21T17:38:16.379Z,22.80
2019-04-21T17:45:01.416Z,22.30
2019-04-21T17:52:09.836Z,22.00
2019-04-21T17:59:16.404Z,21.70
2019-04-21T18:05:56.001Z,21.00
2019-04-21T18:12:41.386Z,20.40
2019-04-21T18:19:15.139Z,19.80
2019-04-21T18:26:07.637Z,19.40
2019-04-21T18:32:48.188Z,19.00
2019-04-21T18:39:49.815Z,18.50
2019-04-21T18:46:52.526Z,18.10
2019-04-21T18:53:41.159Z,17.80
2019-04-21T19:00:17.954Z,17.40
2019-04-21T19:07:12.770Z,17.20
2019-04-21T19:14:20.872Z,16.90
2019-04-21T19:20:55.373Z,16.70
2019-04-21T19:27:43.708Z,16.70
2019-04-21T19:34:19.389Z,16.70
2019-04-21T19:41:15.701Z,16.60
2019-04-21T19:48:08.118Z,16.20
2019-04-21T19:54:37.900Z,15.90
2019-04-21T20:01:19.663Z,15.80
2019-04-21T20:08:22.189Z,15.60
2019-04-21T20:15:20.431Z,15.60
2019-04-21T20:21:38.912Z,15.30
2019-04-21T20:28:36.995Z,14.90
2019-04-21T20:35:38.452Z,14.40
2019-04-21T20:42:12.366Z,13.90
2019-04-21T20:49:00.058Z,13.60
2019-04-21T20:55:44.248Z,13.30
2019-04-21T21:02:37.167Z,13.00
2019-04-21T21:09:19.896Z,12.60
2019-04-21T21:16:17.956Z,12.30
2019-04-21T21:22:55.349Z,12.10
2019-04-21T21:29:45.639Z,11.90
2019-04-21T21:36:35.306Z,11.80
2019-04-21T21:43:01.514Z,11.60
2019-04-21T21:50:01.257Z,11.40
2019-04-21T21:56:34.329Z,11.20
2019-04-21T22:03:27.469Z,11.00
2019-04-21T22:10:10.437Z,10.90
2019-04-21T22:17:17.524Z,10.80
2019-04-21T22:23:54.971Z,10.70
2019-04-21T22:30:38.174Z,10.50
2019-04-21T22:37:36.789Z,10.50
2019-04-21T22:44:06.968Z,10.30
2019-04-21T22:50:53.620Z,10.20
2019-04-21T22:57:43.435Z,10.10
2019-04-21T23:04:36.840Z,10.00
2019-04-21T23:11:14.680Z,9.80
2019-04-21T23:18:22.138Z,9.70
2019-04-21T23:25:09.425Z,9.60
2019-04-21T23:31:57.746Z,9.40
2019-04-21T23:38:32.060Z,9.30
2019-04-21T23:45:10.606Z,9.20
2019-04-21T23:52:01.474Z,9.10
2019-04-21T23:58:44.873Z,9.00
